sensor_id;sensor_type;location;lat;lon;timestamp;P1;durP1;ratioP1;P2;durP2;ratioP2
42124;SDS011;27787;44.594;11.046;2022-09-25T00:01:06;20.70;;;14.07;;
42124;SDS011;27787;44.594;11.046;2022-09-25T00:03:51;20.00;;;13.35;;
42124;SDS011;27787;44.594;11.046;2022-09-25T00:06:35;20.70;;;13.60;;
42124;SDS011;27787;44.594;11.046;2022-09-25T00:09:19;19.75;;;13.45;;
42124;SDS011;27787;44.594;11.046;2022-09-25T00:12:06;26.20;;;13.55;;
42124;SDS011;27787;44.594;11.046;2022-09-25T00:14:50;24.48;;;14.60;;
42124;SDS011;27787;44.594;11.046;2022-09-25T00:17:35;22.77;;;14.30;;
42124;SDS011;27787;44.594;11.046;2022-09-25T00:20:19;21.48;;;14.45;;
42124;SDS011;27787;44.594;11.046;2022-09-25T00:23:03;22.00;;;15.60;;
42124;SDS011;27787;44.594;11.046;2022-09-25T00:25:54;18.95;;;13.20;;
42124;SDS011;27787;44.594;11.046;2022-09-25T00:28:39;20.77;;;13.68;;
42124;SDS011;27787;44.594;11.046;2022-09-25T00:31:24;19.65;;;12.88;;
42124;SDS011;27787;44.594;11.046;2022-09-25T00:34:08;21.42;;;14.20;;
42124;SDS011;27787;44.594;11.046;2022-09-25T00:36:53;18.77;;;13.30;;
42124;SDS011;27787;44.594;11.046;2022-09-25T00:39:37;22.40;;;15.23;;
42124;SDS011;27787;44.594;11.046;2022-09-25T00:42:22;22.25;;;14.70;;
42124;SDS011;27787;44.594;11.046;2022-09-25T00:45:14;26.20;;;16.15;;
42124;SDS011;27787;44.594;11.046;2022-09-25T00:48:02;23.33;;;15.90;;
42124;SDS011;27787;44.594;11.046;2022-09-25T00:50:52;20.70;;;13.95;;
42124;SDS011;27787;44.594;11.046;2022-09-25T00:53:38;23.58;;;14.93;;
42124;SDS011;27787;44.594;11.046;2022-09-25T00:56:23;24.92;;;15.18;;
42124;SDS011;27787;44.594;11.046;2022-09-25T00:59:10;23.98;;;15.07;;
42124;SDS011;27787;44.594;11.046;2022-09-25T01:01:59;22.40;;;14.98;;
42124;SDS011;27787;44.594;11.046;2022-09-25T01:04:43;23.70;;;16.33;;
42124;SDS011;27787;44.594;11.046;2022-09-25T01:07:31;24.30;;;16.00;;
42124;SDS011;27787;44.594;11.046;2022-09-25T01:10:19;23.30;;;15.55;;
42124;SDS011;27787;44.594;11.046;2022-09-25T01:13:04;21.48;;;14.32;;
42124;SDS011;27787;44.594;11.046;2022-09-25T01:15:53;25.58;;;16.23;;
42124;SDS011;27787;44.594;11.046;2022-09-25T01:25:16;21.95;;;14.45;;
42124;SDS011;27787;44.594;11.046;2022-09-25T01:32:11;21.52;;;14.75;;
42124;SDS011;27787;44.594;11.046;2022-09-25T01:35:03;21.30;;;14.63;;
42124;SDS011;27787;44.594;11.046;2022-09-25T01:44:27;20.90;;;13.75;;
42124;SDS011;27787;44.594;11.046;2022-09-25T01:47:16;19.83;;;13.10;;
42124;SDS011;27787;44.594;11.046;2022-09-25T01:50:10;18.42;;;12.07;;
42124;SDS011;27787;44.594;11.046;2022-09-25T01:52:59;18.90;;;12.27;;
42124;SDS011;27787;44.594;11.046;2022-09-25T01:55:47;16.65;;;10.90;;
42124;SDS011;27787;44.594;11.046;2022-09-25T01:58:40;17.38;;;11.40;;
42124;SDS011;27787;44.594;11.046;2022-09-25T02:04:23;18.02;;;10.52;;
42124;SDS011;27787;44.594;11.046;2022-09-25T02:07:14;13.60;;;9.40;;
42124;SDS011;27787;44.594;11.046;2022-09-25T02:10:08;16.45;;;10.05;;
42124;SDS011;27787;44.594;11.046;2022-09-25T02:12:59;15.30;;;10.40;;
42124;SDS011;27787;44.594;11.046;2022-09-25T02:15:57;13.05;;;9.23;;
42124;SDS011;27787;44.594;11.046;2022-09-25T02:18:45;16.15;;;9.98;;
42124;SDS011;27787;44.594;11.046;2022-09-25T02:21:55;11.73;;;8.00;;
42124;SDS011;27787;44.594;11.046;2022-09-25T02:25:10;12.77;;;8.93;;
42124;SDS011;27787;44.594;11.046;2022-09-25T02:28:01;11.77;;;8.05;;
42124;SDS011;27787;44.594;11.046;2022-09-25T02:30:46;13.63;;;9.02;;
42124;SDS011;27787;44.594;11.046;2022-09-25T02:33:34;13.18;;;8.30;;
42124;SDS011;27787;44.594;11.046;2022-09-25T02:36:20;11.40;;;7.93;;
42124;SDS011;27787;44.594;11.046;2022-09-25T02:39:06;12.48;;;8.63;;
42124;SDS011;27787;44.594;11.046;2022-09-25T02:54:07;11.95;;;8.20;;
42124;SDS011;27787;44.594;11.046;2022-09-25T02:56:58;12.05;;;8.20;;
42124;SDS011;27787;44.594;11.046;2022-09-25T02:59:46;13.00;;;8.23;;
42124;SDS011;27787;44.594;11.046;2022-09-25T03:02:38;12.18;;;7.68;;
42124;SDS011;27787;44.594;11.046;2022-09-25T03:05:25;11.45;;;7.57;;
42124;SDS011;27787;44.594;11.046;2022-09-25T03:08:09;12.38;;;8.32;;
42124;SDS011;27787;44.594;11.046;2022-09-25T03:11:13;13.05;;;8.43;;
42124;SDS011;27787;44.594;11.046;2022-09-25T03:14:00;11.95;;;8.10;;
42124;SDS011;27787;44.594;11.046;2022-09-25T03:16:46;11.93;;;8.23;;
42124;SDS011;27787;44.594;11.046;2022-09-25T03:19:34;13.38;;;8.95;;
42124;SDS011;27787;44.594;11.046;2022-09-25T03:22:18;12.20;;;8.75;;
42124;SDS011;27787;44.594;11.046;2022-09-25T03:25:05;12.20;;;9.02;;
42124;SDS011;27787;44.594;11.046;2022-09-25T03:27:50;13.82;;;9.23;;
42124;SDS011;27787;44.594;11.046;2022-09-25T03:30:34;13.50;;;8.85;;
42124;SDS011;27787;44.594;11.046;2022-09-25T03:33:21;11.80;;;8.70;;
42124;SDS011;27787;44.594;11.046;2022-09-25T03:36:21;11.95;;;8.65;;
42124;SDS011;27787;44.594;11.046;2022-09-25T03:39:07;14.27;;;9.48;;
42124;SDS011;27787;44.594;11.046;2022-09-25T03:41:53;13.57;;;9.15;;
42124;SDS011;27787;44.594;11.046;2022-09-25T03:44:37;14.68;;;9.80;;
42124;SDS011;27787;44.594;11.046;2022-09-25T03:47:21;14.50;;;9.38;;
42124;SDS011;27787;44.594;11.046;2022-09-25T03:50:06;13.82;;;9.40;;
42124;SDS011;27787;44.594;11.046;2022-09-25T03:52:51;15.15;;;10.07;;
42124;SDS011;27787;44.594;11.046;2022-09-25T03:55:35;14.50;;;9.60;;
42124;SDS011;27787;44.594;11.046;2022-09-25T03:58:19;13.15;;;9.55;;
42124;SDS011;27787;44.594;11.046;2022-09-25T04:01:04;11.70;;;9.30;;
42124;SDS011;27787;44.594;11.046;2022-09-25T04:03:49;14.65;;;10.40;;
42124;SDS011;27787;44.594;11.046;2022-09-25T04:06:34;14.40;;;9.90;;
42124;SDS011;27787;44.594;11.046;2022-09-25T04:09:18;15.20;;;10.63;;
42124;SDS011;27787;44.594;11.046;2022-09-25T04:12:03;14.70;;;10.10;;
42124;SDS011;27787;44.594;11.046;2022-09-25T04:14:49;14.95;;;9.80;;
42124;SDS011;27787;44.594;11.046;2022-09-25T04:17:33;13.57;;;9.80;;
42124;SDS011;27787;44.594;11.046;2022-09-25T04:20:18;17.83;;;11.53;;
42124;SDS011;27787;44.594;11.046;2022-09-25T04:23:03;16.23;;;11.02;;
42124;SDS011;27787;44.594;11.046;2022-09-25T04:25:47;19.48;;;11.20;;
42124;SDS011;27787;44.594;11.046;2022-09-25T04:28:32;16.80;;;11.57;;
42124;SDS011;27787;44.594;11.046;2022-09-25T04:31:16;14.05;;;10.02;;
42124;SDS011;27787;44.594;11.046;2022-09-25T04:34:01;15.73;;;10.98;;
42124;SDS011;27787;44.594;11.046;2022-09-25T04:36:46;14.55;;;10.18;;
42124;SDS011;27787;44.594;11.046;2022-09-25T04:39:29;15.55;;;10.45;;
42124;SDS011;27787;44.594;11.046;2022-09-25T04:42:14;15.02;;;9.95;;
42124;SDS011;27787;44.594;11.046;2022-09-25T04:44:58;15.93;;;10.55;;
42124;SDS011;27787;44.594;11.046;2022-09-25T04:47:42;14.48;;;9.88;;
42124;SDS011;27787;44.594;11.046;2022-09-25T04:50:27;15.73;;;11.05;;
42124;SDS011;27787;44.594;11.046;2022-09-25T04:53:18;15.73;;;10.68;;
42124;SDS011;27787;44.594;11.046;2022-09-25T04:56:04;16.33;;;11.18;;
42124;SDS011;27787;44.594;11.046;2022-09-25T04:58:54;16.10;;;11.82;;
42124;SDS011;27787;44.594;11.046;2022-09-25T05:01:39;17.48;;;11.70;;
42124;SDS011;27787;44.594;11.046;2022-09-25T05:04:23;17.17;;;12.85;;
42124;SDS011;27787;44.594;11.046;2022-09-25T05:07:07;16.73;;;12.30;;
42124;SDS011;27787;44.594;11.046;2022-09-25T05:09:52;18.38;;;12.02;;
42124;SDS011;27787;44.594;11.046;2022-09-25T05:12:36;18.13;;;12.43;;
42124;SDS011;27787;44.594;11.046;2022-09-25T05:15:21;17.10;;;12.23;;
42124;SDS011;27787;44.594;11.046;2022-09-25T05:18:06;19.50;;;13.27;;
42124;SDS011;27787;44.594;11.046;2022-09-25T05:20:55;15.13;;;11.15;;
42124;SDS011;27787;44.594;11.046;2022-09-25T05:23:40;18.83;;;12.48;;
42124;SDS011;27787;44.594;11.046;2022-09-25T05:26:25;20.20;;;13.30;;
42124;SDS011;27787;44.594;11.046;2022-09-25T05:29:11;19.63;;;13.00;;
42124;SDS011;27787;44.594;11.046;2022-09-25T05:31:55;17.55;;;12.25;;
42124;SDS011;27787;44.594;11.046;2022-09-25T05:34:40;17.90;;;12.07;;
42124;SDS011;27787;44.594;11.046;2022-09-25T05:37:24;14.88;;;11.20;;
42124;SDS011;27787;44.594;11.046;2022-09-25T05:40:08;17.50;;;12.15;;
42124;SDS011;27787;44.594;11.046;2022-09-25T05:42:53;15.95;;;11.48;;
42124;SDS011;27787;44.594;11.046;2022-09-25T05:45:37;17.23;;;11.55;;
42124;SDS011;27787;44.594;11.046;2022-09-25T05:48:22;17.75;;;13.40;;
42124;SDS011;27787;44.594;11.046;2022-09-25T05:51:06;15.48;;;11.55;;
42124;SDS011;27787;44.594;11.046;2022-09-25T05:53:54;16.75;;;11.95;;
42124;SDS011;27787;44.594;11.046;2022-09-25T05:56:38;22.63;;;12.90;;
42124;SDS011;27787;44.594;11.046;2022-09-25T05:59:22;19.92;;;13.30;;
42124;SDS011;27787;44.594;11.046;2022-09-25T06:02:09;18.13;;;13.20;;
42124;SDS011;27787;44.594;11.046;2022-09-25T06:04:54;18.20;;;13.70;;
42124;SDS011;27787;44.594;11.046;2022-09-25T06:07:38;19.13;;;13.90;;
42124;SDS011;27787;44.594;11.046;2022-09-25T06:10:23;22.35;;;15.10;;
42124;SDS011;27787;44.594;11.046;2022-09-25T06:13:09;21.83;;;15.18;;
42124;SDS011;27787;44.594;11.046;2022-09-25T06:15:53;19.65;;;13.80;;
42124;SDS011;27787;44.594;11.046;2022-09-25T06:18:37;22.17;;;15.32;;
42124;SDS011;27787;44.594;11.046;2022-09-25T06:21:21;20.58;;;14.45;;
42124;SDS011;27787;44.594;11.046;2022-09-25T06:24:07;23.23;;;15.75;;
42124;SDS011;27787;44.594;11.046;2022-09-25T06:26:51;24.33;;;15.57;;
42124;SDS011;27787;44.594;11.046;2022-09-25T06:29:35;22.92;;;15.00;;
42124;SDS011;27787;44.594;11.046;2022-09-25T06:32:19;22.55;;;15.65;;
42124;SDS011;27787;44.594;11.046;2022-09-25T06:35:06;23.10;;;15.45;;
42124;SDS011;27787;44.594;11.046;2022-09-25T06:37:50;22.50;;;15.63;;
42124;SDS011;27787;44.594;11.046;2022-09-25T06:40:35;22.88;;;15.75;;
42124;SDS011;27787;44.594;11.046;2022-09-25T06:43:20;24.05;;;17.05;;
42124;SDS011;27787;44.594;11.046;2022-09-25T06:46:04;24.45;;;15.98;;
42124;SDS011;27787;44.594;11.046;2022-09-25T06:48:49;25.67;;;17.00;;
42124;SDS011;27787;44.594;11.046;2022-09-25T06:51:37;22.75;;;16.15;;
42124;SDS011;27787;44.594;11.046;2022-09-25T06:54:22;25.08;;;16.52;;
42124;SDS011;27787;44.594;11.046;2022-09-25T06:57:06;23.48;;;16.23;;
42124;SDS011;27787;44.594;11.046;2022-09-25T06:59:52;24.20;;;16.70;;
42124;SDS011;27787;44.594;11.046;2022-09-25T07:02:36;27.00;;;17.63;;
42124;SDS011;27787;44.594;11.046;2022-09-25T07:05:39;23.73;;;15.55;;
42124;SDS011;27787;44.594;11.046;2022-09-25T07:08:25;24.63;;;15.48;;
42124;SDS011;27787;44.594;11.046;2022-09-25T07:11:13;22.45;;;14.25;;
42124;SDS011;27787;44.594;11.046;2022-09-25T07:14:00;24.88;;;14.50;;
42124;SDS011;27787;44.594;11.046;2022-09-25T07:16:44;24.25;;;14.20;;
42124;SDS011;27787;44.594;11.046;2022-09-25T07:19:28;25.60;;;16.30;;
42124;SDS011;27787;44.594;11.046;2022-09-25T07:22:12;25.45;;;15.73;;
42124;SDS011;27787;44.594;11.046;2022-09-25T07:24:56;30.27;;;20.98;;
42124;SDS011;27787;44.594;11.046;2022-09-25T07:27:40;23.73;;;16.02;;
42124;SDS011;27787;44.594;11.046;2022-09-25T07:30:27;32.28;;;20.52;;
42124;SDS011;27787;44.594;11.046;2022-09-25T07:33:14;24.98;;;16.55;;
42124;SDS011;27787;44.594;11.046;2022-09-25T07:35:59;28.75;;;16.73;;
42124;SDS011;27787;44.594;11.046;2022-09-25T07:38:47;30.88;;;16.45;;
42124;SDS011;27787;44.594;11.046;2022-09-25T07:41:34;26.40;;;17.15;;
42124;SDS011;27787;44.594;11.046;2022-09-25T07:44:20;25.85;;;17.52;;
42124;SDS011;27787;44.594;11.046;2022-09-25T07:47:04;31.38;;;20.02;;
42124;SDS011;27787;44.594;11.046;2022-09-25T07:52:34;31.95;;;18.60;;
42124;SDS011;27787;44.594;11.046;2022-09-25T07:55:18;33.97;;;19.40;;
42124;SDS011;27787;44.594;11.046;2022-09-25T07:58:02;33.92;;;20.92;;
42124;SDS011;27787;44.594;11.046;2022-09-25T08:00:46;35.50;;;21.95;;
42124;SDS011;27787;44.594;11.046;2022-09-25T08:03:30;35.58;;;21.65;;
42124;SDS011;27787;44.594;11.046;2022-09-25T08:06:14;34.88;;;20.70;;
42124;SDS011;27787;44.594;11.046;2022-09-25T08:08:59;36.00;;;20.75;;
42124;SDS011;27787;44.594;11.046;2022-09-25T08:11:43;35.17;;;20.77;;
42124;SDS011;27787;44.594;11.046;2022-09-25T08:14:27;35.08;;;20.60;;
42124;SDS011;27787;44.594;11.046;2022-09-25T08:17:11;35.38;;;22.13;;
42124;SDS011;27787;44.594;11.046;2022-09-25T08:19:56;37.85;;;21.33;;
42124;SDS011;27787;44.594;11.046;2022-09-25T08:22:41;34.60;;;20.77;;
42124;SDS011;27787;44.594;11.046;2022-09-25T08:25:25;35.55;;;21.88;;
42124;SDS011;27787;44.594;11.046;2022-09-25T08:28:08;36.00;;;21.65;;
42124;SDS011;27787;44.594;11.046;2022-09-25T08:30:53;36.75;;;20.60;;
42124;SDS011;27787;44.594;11.046;2022-09-25T08:33:37;34.22;;;20.73;;
42124;SDS011;27787;44.594;11.046;2022-09-25T08:36:23;36.70;;;21.35;;
42124;SDS011;27787;44.594;11.046;2022-09-25T08:39:08;37.40;;;21.98;;
42124;SDS011;27787;44.594;11.046;2022-09-25T08:41:53;35.97;;;21.70;;
42124;SDS011;27787;44.594;11.046;2022-09-25T08:44:42;31.65;;;20.70;;
42124;SDS011;27787;44.594;11.046;2022-09-25T08:47:28;34.35;;;20.48;;
42124;SDS011;27787;44.594;11.046;2022-09-25T08:50:31;32.42;;;20.02;;
42124;SDS011;27787;44.594;11.046;2022-09-25T08:56:08;34.90;;;20.45;;
42124;SDS011;27787;44.594;11.046;2022-09-25T09:01:58;30.23;;;18.33;;
42124;SDS011;27787;44.594;11.046;2022-09-25T09:07:36;33.15;;;19.83;;
42124;SDS011;27787;44.594;11.046;2022-09-25T09:16:27;31.75;;;19.58;;
42124;SDS011;27787;44.594;11.046;2022-09-25T09:19:17;31.55;;;18.60;;
42124;SDS011;27787;44.594;11.046;2022-09-25T09:22:11;31.90;;;18.67;;
42124;SDS011;27787;44.594;11.046;2022-09-25T09:31:18;32.10;;;19.67;;
42124;SDS011;27787;44.594;11.046;2022-09-25T09:34:26;34.40;;;20.50;;
42124;SDS011;27787;44.594;11.046;2022-09-25T09:37:22;32.75;;;19.15;;
42124;SDS011;27787;44.594;11.046;2022-09-25T09:43:44;29.20;;;17.55;;
42124;SDS011;27787;44.594;11.046;2022-09-25T09:46:45;31.60;;;17.60;;
42124;SDS011;27787;44.594;11.046;2022-09-25T09:50:05;30.23;;;18.15;;
42124;SDS011;27787;44.594;11.046;2022-09-25T09:53:05;33.38;;;19.25;;
42124;SDS011;27787;44.594;11.046;2022-09-25T09:55:59;31.77;;;17.20;;
42124;SDS011;27787;44.594;11.046;2022-09-25T09:58:52;31.63;;;17.83;;
42124;SDS011;27787;44.594;11.046;2022-09-25T10:01:37;28.50;;;17.30;;
42124;SDS011;27787;44.594;11.046;2022-09-25T10:04:27;33.42;;;18.35;;
42124;SDS011;27787;44.594;11.046;2022-09-25T10:07:15;29.25;;;17.55;;
42124;SDS011;27787;44.594;11.046;2022-09-25T10:10:08;27.75;;;17.30;;
42124;SDS011;27787;44.594;11.046;2022-09-25T10:12:57;27.25;;;16.70;;
42124;SDS011;27787;44.594;11.046;2022-09-25T10:15:52;30.17;;;16.17;;
42124;SDS011;27787;44.594;11.046;2022-09-25T10:18:46;29.67;;;16.75;;
42124;SDS011;27787;44.594;11.046;2022-09-25T10:21:40;30.02;;;17.27;;
42124;SDS011;27787;44.594;11.046;2022-09-25T10:27:44;25.88;;;14.80;;
42124;SDS011;27787;44.594;11.046;2022-09-25T10:30:30;24.25;;;14.38;;
42124;SDS011;27787;44.594;11.046;2022-09-25T10:33:19;26.42;;;15.32;;
42124;SDS011;27787;44.594;11.046;2022-09-25T10:36:06;22.70;;;14.02;;
42124;SDS011;27787;44.594;11.046;2022-09-25T10:38:50;22.30;;;13.45;;
42124;SDS011;27787;44.594;11.046;2022-09-25T10:41:41;24.27;;;14.00;;
42124;SDS011;27787;44.594;11.046;2022-09-25T10:50:22;25.27;;;14.48;;
42124;SDS011;27787;44.594;11.046;2022-09-25T10:53:24;22.55;;;12.35;;
42124;SDS011;27787;44.594;11.046;2022-09-25T10:56:14;23.52;;;13.40;;
42124;SDS011;27787;44.594;11.046;2022-09-25T10:59:19;20.17;;;11.77;;
42124;SDS011;27787;44.594;11.046;2022-09-25T11:02:11;23.30;;;12.80;;
42124;SDS011;27787;44.594;11.046;2022-09-25T11:05:06;22.33;;;13.15;;
42124;SDS011;27787;44.594;11.046;2022-09-25T11:07:59;20.98;;;12.02;;
42124;SDS011;27787;44.594;11.046;2022-09-25T11:10:58;19.50;;;12.15;;
42124;SDS011;27787;44.594;11.046;2022-09-25T11:13:49;20.77;;;12.38;;
42124;SDS011;27787;44.594;11.046;2022-09-25T11:16:55;20.17;;;12.35;;
42124;SDS011;27787;44.594;11.046;2022-09-25T11:19:41;19.23;;;10.73;;
42124;SDS011;27787;44.594;11.046;2022-09-25T11:22:34;20.98;;;12.32;;
42124;SDS011;27787;44.594;11.046;2022-09-25T11:25:23;21.73;;;13.05;;
42124;SDS011;27787;44.594;11.046;2022-09-25T11:31:34;24.75;;;12.77;;
42124;SDS011;27787;44.594;11.046;2022-09-25T11:37:29;25.27;;;15.27;;
42124;SDS011;27787;44.594;11.046;2022-09-25T11:40:33;32.45;;;18.08;;
42124;SDS011;27787;44.594;11.046;2022-09-25T11:47:17;23.55;;;13.85;;
42124;SDS011;27787;44.594;11.046;2022-09-25T11:50:14;26.33;;;14.90;;
42124;SDS011;27787;44.594;11.046;2022-09-25T11:53:03;27.77;;;13.98;;
42124;SDS011;27787;44.594;11.046;2022-09-25T12:14:06;26.75;;;13.75;;
42124;SDS011;27787;44.594;11.046;2022-09-25T12:23:51;28.98;;;15.43;;
42124;SDS011;27787;44.594;11.046;2022-09-25T12:26:57;24.92;;;13.30;;
42124;SDS011;27787;44.594;11.046;2022-09-25T12:36:15;26.17;;;15.25;;
42124;SDS011;27787;44.594;11.046;2022-09-25T12:42:16;25.92;;;12.98;;
42124;SDS011;27787;44.594;11.046;2022-09-25T12:45:15;25.13;;;13.93;;
42124;SDS011;27787;44.594;11.046;2022-09-25T12:51:15;25.45;;;13.85;;
42124;SDS011;27787;44.594;11.046;2022-09-25T12:57:12;24.50;;;13.77;;
42124;SDS011;27787;44.594;11.046;2022-09-25T13:00:13;23.75;;;12.75;;
42124;SDS011;27787;44.594;11.046;2022-09-25T13:03:13;23.02;;;12.90;;
42124;SDS011;27787;44.594;11.046;2022-09-25T13:06:09;27.35;;;14.15;;
42124;SDS011;27787;44.594;11.046;2022-09-25T13:12:18;23.35;;;14.25;;
42124;SDS011;27787;44.594;11.046;2022-09-25T13:15:12;23.65;;;13.23;;
42124;SDS011;27787;44.594;11.046;2022-09-25T13:18:04;27.48;;;14.80;;
42124;SDS011;27787;44.594;11.046;2022-09-25T13:20:54;23.60;;;12.90;;
42124;SDS011;27787;44.594;11.046;2022-09-25T13:23:40;22.55;;;13.85;;
42124;SDS011;27787;44.594;11.046;2022-09-25T13:26:24;24.13;;;13.70;;
42124;SDS011;27787;44.594;11.046;2022-09-25T13:29:20;27.13;;;13.95;;
42124;SDS011;27787;44.594;11.046;2022-09-25T13:32:15;21.85;;;13.07;;
42124;SDS011;27787;44.594;11.046;2022-09-25T13:35:02;22.80;;;13.27;;
42124;SDS011;27787;44.594;11.046;2022-09-25T13:37:50;23.77;;;13.85;;
42124;SDS011;27787;44.594;11.046;2022-09-25T13:40:39;21.60;;;13.20;;
42124;SDS011;27787;44.594;11.046;2022-09-25T13:43:27;21.23;;;12.82;;
42124;SDS011;27787;44.594;11.046;2022-09-25T13:49:31;26.10;;;13.90;;
42124;SDS011;27787;44.594;11.046;2022-09-25T13:55:20;23.30;;;13.98;;
42124;SDS011;27787;44.594;11.046;2022-09-25T13:58:14;22.30;;;13.23;;
42124;SDS011;27787;44.594;11.046;2022-09-25T14:01:10;23.00;;;13.07;;
42124;SDS011;27787;44.594;11.046;2022-09-25T14:04:21;22.10;;;12.40;;
42124;SDS011;27787;44.594;11.046;2022-09-25T14:07:20;23.55;;;12.73;;
42124;SDS011;27787;44.594;11.046;2022-09-25T14:10:09;19.80;;;11.68;;
42124;SDS011;27787;44.594;11.046;2022-09-25T14:12:55;21.38;;;11.65;;
42124;SDS011;27787;44.594;11.046;2022-09-25T14:15:40;23.63;;;12.95;;
42124;SDS011;27787;44.594;11.046;2022-09-25T14:18:28;18.40;;;11.05;;
42124;SDS011;27787;44.594;11.046;2022-09-25T14:21:25;22.95;;;12.75;;
42124;SDS011;27787;44.594;11.046;2022-09-25T14:27:13;18.48;;;11.85;;
42124;SDS011;27787;44.594;11.046;2022-09-25T14:30:08;21.33;;;12.30;;
42124;SDS011;27787;44.594;11.046;2022-09-25T14:39:30;18.00;;;11.15;;
42124;SDS011;27787;44.594;11.046;2022-09-25T14:42:50;18.17;;;11.10;;
42124;SDS011;27787;44.594;11.046;2022-09-25T14:48:54;21.67;;;12.88;;
42124;SDS011;27787;44.594;11.046;2022-09-25T14:51:44;17.15;;;10.85;;
42124;SDS011;27787;44.594;11.046;2022-09-25T14:54:31;14.70;;;9.95;;
42124;SDS011;27787;44.594;11.046;2022-09-25T14:57:40;18.88;;;10.55;;
42124;SDS011;27787;44.594;11.046;2022-09-25T15:00:24;20.00;;;9.98;;
42124;SDS011;27787;44.594;11.046;2022-09-25T15:03:10;16.88;;;10.23;;
42124;SDS011;27787;44.594;11.046;2022-09-25T15:05:58;17.20;;;10.05;;
42124;SDS011;27787;44.594;11.046;2022-09-25T15:08:45;16.48;;;9.35;;
42124;SDS011;27787;44.594;11.046;2022-09-25T15:11:40;19.38;;;10.60;;
42124;SDS011;27787;44.594;11.046;2022-09-25T15:14:25;15.85;;;9.55;;
42124;SDS011;27787;44.594;11.046;2022-09-25T15:17:10;16.77;;;9.73;;
42124;SDS011;27787;44.594;11.046;2022-09-25T15:20:04;14.93;;;9.05;;
42124;SDS011;27787;44.594;11.046;2022-09-25T15:25:41;13.05;;;8.48;;
42124;SDS011;27787;44.594;11.046;2022-09-25T15:28:36;16.20;;;9.65;;
42124;SDS011;27787;44.594;11.046;2022-09-25T15:31:24;15.82;;;9.63;;
42124;SDS011;27787;44.594;11.046;2022-09-25T15:34:09;15.32;;;9.02;;
42124;SDS011;27787;44.594;11.046;2022-09-25T15:40:17;15.85;;;9.35;;
42124;SDS011;27787;44.594;11.046;2022-09-25T15:43:12;18.23;;;10.07;;
42124;SDS011;27787;44.594;11.046;2022-09-25T15:48:50;15.75;;;9.52;;
42124;SDS011;27787;44.594;11.046;2022-09-25T15:51:43;16.25;;;10.15;;
42124;SDS011;27787;44.594;11.046;2022-09-25T15:57:23;18.63;;;11.40;;
42124;SDS011;27787;44.594;11.046;2022-09-25T16:00:21;19.92;;;11.27;;
42124;SDS011;27787;44.594;11.046;2022-09-25T16:03:25;19.20;;;11.65;;
42124;SDS011;27787;44.594;11.046;2022-09-25T16:06:42;20.42;;;10.02;;
42124;SDS011;27787;44.594;11.046;2022-09-25T16:12:21;14.68;;;9.05;;
42124;SDS011;27787;44.594;11.046;2022-09-25T16:24:00;15.20;;;9.02;;
42124;SDS011;27787;44.594;11.046;2022-09-25T16:26:53;15.30;;;9.85;;
42124;SDS011;27787;44.594;11.046;2022-09-25T16:29:47;14.27;;;8.57;;
42124;SDS011;27787;44.594;11.046;2022-09-25T16:32:31;18.20;;;10.23;;
42124;SDS011;27787;44.594;11.046;2022-09-25T16:35:20;15.55;;;9.65;;
42124;SDS011;27787;44.594;11.046;2022-09-25T16:38:24;18.05;;;10.20;;
42124;SDS011;27787;44.594;11.046;2022-09-25T16:41:19;18.50;;;10.20;;
42124;SDS011;27787;44.594;11.046;2022-09-25T16:44:13;17.70;;;10.35;;
42124;SDS011;27787;44.594;11.046;2022-09-25T16:47:05;22.77;;;11.35;;
42124;SDS011;27787;44.594;11.046;2022-09-25T16:49:57;19.73;;;10.82;;
42124;SDS011;27787;44.594;11.046;2022-09-25T16:52:41;19.20;;;10.60;;
42124;SDS011;27787;44.594;11.046;2022-09-25T16:55:26;21.65;;;11.90;;
42124;SDS011;27787;44.594;11.046;2022-09-25T17:00:56;20.77;;;11.68;;
42124;SDS011;27787;44.594;11.046;2022-09-25T17:03:43;27.58;;;12.98;;
42124;SDS011;27787;44.594;11.046;2022-09-25T17:06:34;22.88;;;12.52;;
42124;SDS011;27787;44.594;11.046;2022-09-25T17:09:23;23.83;;;13.40;;
42124;SDS011;27787;44.594;11.046;2022-09-25T17:12:12;25.23;;;13.70;;
42124;SDS011;27787;44.594;11.046;2022-09-25T17:15:02;25.58;;;13.43;;
42124;SDS011;27787;44.594;11.046;2022-09-25T17:17:47;22.05;;;12.15;;
42124;SDS011;27787;44.594;11.046;2022-09-25T17:20:32;20.25;;;12.20;;
42124;SDS011;27787;44.594;11.046;2022-09-25T17:23:21;26.63;;;14.40;;
42124;SDS011;27787;44.594;11.046;2022-09-25T17:26:14;24.55;;;14.65;;
42124;SDS011;27787;44.594;11.046;2022-09-25T17:29:01;25.73;;;14.27;;
42124;SDS011;27787;44.594;11.046;2022-09-25T17:31:45;25.48;;;14.05;;
42124;SDS011;27787;44.594;11.046;2022-09-25T17:34:29;23.90;;;13.82;;
42124;SDS011;27787;44.594;11.046;2022-09-25T17:37:14;25.20;;;14.87;;
42124;SDS011;27787;44.594;11.046;2022-09-25T17:39:58;26.55;;;15.07;;
42124;SDS011;27787;44.594;11.046;2022-09-25T17:42:42;28.30;;;16.20;;
42124;SDS011;27787;44.594;11.046;2022-09-25T17:45:28;29.63;;;16.85;;
42124;SDS011;27787;44.594;11.046;2022-09-25T17:48:18;24.50;;;14.55;;
42124;SDS011;27787;44.594;11.046;2022-09-25T17:53:59;28.15;;;13.85;;
42124;SDS011;27787;44.594;11.046;2022-09-25T17:56:45;29.85;;;15.73;;
42124;SDS011;27787;44.594;11.046;2022-09-25T17:59:30;28.85;;;15.32;;
42124;SDS011;27787;44.594;11.046;2022-09-25T18:05:01;29.15;;;15.40;;
42124;SDS011;27787;44.594;11.046;2022-09-25T18:07:45;29.25;;;14.95;;
42124;SDS011;27787;44.594;11.046;2022-09-25T18:10:30;34.28;;;17.05;;
42124;SDS011;27787;44.594;11.046;2022-09-25T18:13:15;29.20;;;16.33;;
42124;SDS011;27787;44.594;11.046;2022-09-25T18:16:03;34.53;;;17.75;;
42124;SDS011;27787;44.594;11.046;2022-09-25T18:18:48;33.13;;;17.30;;
42124;SDS011;27787;44.594;11.046;2022-09-25T18:21:51;29.88;;;16.15;;
42124;SDS011;27787;44.594;11.046;2022-09-25T18:24:59;28.92;;;16.10;;
42124;SDS011;27787;44.594;11.046;2022-09-25T18:27:43;30.65;;;16.17;;
42124;SDS011;27787;44.594;11.046;2022-09-25T18:30:28;27.38;;;15.40;;
42124;SDS011;27787;44.594;11.046;2022-09-25T18:33:12;34.17;;;17.00;;
42124;SDS011;27787;44.594;11.046;2022-09-25T18:35:58;31.50;;;17.10;;
42124;SDS011;27787;44.594;11.046;2022-09-25T18:38:42;28.95;;;16.58;;
42124;SDS011;27787;44.594;11.046;2022-09-25T18:41:28;31.65;;;16.15;;
42124;SDS011;27787;44.594;11.046;2022-09-25T18:44:15;33.85;;;16.52;;
42124;SDS011;27787;44.594;11.046;2022-09-25T18:47:03;32.10;;;16.67;;
42124;SDS011;27787;44.594;11.046;2022-09-25T18:49:49;33.70;;;16.42;;
42124;SDS011;27787;44.594;11.046;2022-09-25T18:55:21;35.00;;;16.40;;
42124;SDS011;27787;44.594;11.046;2022-09-25T18:58:06;35.65;;;17.23;;
42124;SDS011;27787;44.594;11.046;2022-09-25T19:00:53;30.40;;;15.88;;
42124;SDS011;27787;44.594;11.046;2022-09-25T19:03:38;28.20;;;15.13;;
42124;SDS011;27787;44.594;11.046;2022-09-25T19:06:23;30.73;;;16.52;;
42124;SDS011;27787;44.594;11.046;2022-09-25T19:09:07;29.90;;;15.27;;
42124;SDS011;27787;44.594;11.046;2022-09-25T19:11:52;27.70;;;14.80;;